createdAt,value
2019-06-10T00:02:50.679Z,62.24
2019-06-10T00:05:55.907Z,61.96
2019-06-10T00:09:04.591Z,61.82
2019-06-10T00:12:12.727Z,62.40
2019-06-10T00:15:18.357Z,62.72
2019-06-10T00:18:38.759Z,61.91
2019-06-10T00:21:32.428Z,61.89
2019-06-10T00:24:40.747Z,61.39
2019-06-10T00:27:45.540Z,61.59
2019-06-10T00:30:51.689Z,61.54
2019-06-10T00:33:58.637Z,61.15
2019-06-10T00:37:06.284Z,60.62
2019-06-10T00:40:14.100Z,60.20
2019-06-10T00:43:21.388Z,60.04
2019-06-10T00:46:27.321Z,60.35
2019-06-10T00:49:33.081Z,59.99
2019-06-10T00:52:41.460Z,60.52
2019-06-10T00:55:46.167Z,61.04
2019-06-10T00:58:51.850Z,60.33
2019-06-10T01:01:57.529Z,59.83
2019-06-10T01:05:03.220Z,59.98
2019-06-10T01:08:08.862Z,59.98
2019-06-10T01:11:21.567Z,59.90
2019-06-10T01:14:21.940Z,59.89
2019-06-10T01:17:27.642Z,60.05
2019-06-10T01:20:33.361Z,60.35
2019-06-10T01:23:39.009Z,60.17
2019-06-10T01:26:46.408Z,60.39
2019-06-10T01:29:52.141Z,60.37
2019-06-10T01:32:57.827Z,60.06
2019-06-10T01:36:03.536Z,59.93
2019-06-10T01:39:11.594Z,60.02
2019-06-10T01:42:17.202Z,59.59
2019-06-10T01:45:23.099Z,59.36
2019-06-10T01:48:41.460Z,58.88
2019-06-10T01:51:36.186Z,58.41
2019-06-10T01:54:42.140Z,57.59
2019-06-10T01:57:48.888Z,57.10
2019-06-10T02:01:02.126Z,57.12
2019-06-10T02:04:11.583Z,57.54
2019-06-10T02:07:18.476Z,57.35
2019-06-10T02:10:23.583Z,57.12
2019-06-10T02:13:33.242Z,57.78
2019-06-10T02:16:41.308Z,57.78
2019-06-10T02:19:46.531Z,57.77
2019-06-10T02:22:52.176Z,57.88
2019-06-10T02:25:57.861Z,57.92
2019-06-10T02:29:03.586Z,57.70
2019-06-10T02:32:12.440Z,57.97
2019-06-10T02:35:27.226Z,58.13
2019-06-10T02:38:33.204Z,58.29
2019-06-10T02:41:36.063Z,58.23
2019-06-10T02:44:40.378Z,58.14
2019-06-10T02:47:46.072Z,58.10
2019-06-10T02:51:06.185Z,58.24
2019-06-10T02:54:15.584Z,57.90
2019-06-10T02:57:24.627Z,57.96
2019-06-10T03:00:39.558Z,57.49
2019-06-10T03:03:42.929Z,57.63
2019-06-10T03:06:44.817Z,57.61
2019-06-10T03:09:49.452Z,57.24
2019-06-10T03:12:55.149Z,57.31
2019-06-10T03:16:16.218Z,57.53
2019-06-10T03:19:39.766Z,57.79
2019-06-10T03:22:29.254Z,57.26
2019-06-10T03:25:34.996Z,57.07
2019-06-10T03:28:42.790Z,56.40
2019-06-10T03:31:48.739Z,56.75
2019-06-10T03:34:55.128Z,56.23
2019-06-10T03:38:02.993Z,56.57
2019-06-10T03:41:08.401Z,56.06
2019-06-10T03:44:14.071Z,55.39
2019-06-10T03:47:19.726Z,55.07
2019-06-10T03:50:27.121Z,55.02
2019-06-10T03:53:33.604Z,54.61
2019-06-10T03:56:39.638Z,55.04
2019-06-10T03:59:45.414Z,55.02
2019-06-10T04:02:53.118Z,55.05
2019-06-10T04:05:58.496Z,54.77
2019-06-10T04:09:05.425Z,54.23
2019-06-10T04:12:12.570Z,54.35
2019-06-10T04:15:19.691Z,54.30
2019-06-10T04:18:27.870Z,53.95
2019-06-10T04:21:33.161Z,54.16
2019-06-10T04:24:38.809Z,54.27
2019-06-10T04:27:44.618Z,54.01
2019-06-10T04:30:50.337Z,54.42
2019-06-10T04:33:56.006Z,54.49
2019-06-10T04:37:03.135Z,54.76
2019-06-10T04:40:09.732Z,54.90
2019-06-10T04:43:15.387Z,54.62
2019-06-10T04:46:23.662Z,54.66
2019-06-10T04:49:29.779Z,54.62
2019-06-10T04:52:36.033Z,54.65
2019-06-10T04:55:43.139Z,54.51
2019-06-10T04:58:49.074Z,54.16
2019-06-10T05:01:54.778Z,53.21
2019-06-10T05:05:02.964Z,52.91
2019-06-10T05:08:07.817Z,53.50
2019-06-10T05:11:13.516Z,52.72
2019-06-10T05:14:19.406Z,52.73
2019-06-10T05:17:27.570Z,52.16
2019-06-10T05:20:51.084Z,52.41
2019-06-10T05:23:42.757Z,52.64
2019-06-10T05:26:48.004Z,53.46
2019-06-10T05:29:53.744Z,52.56
2019-06-10T05:32:59.410Z,52.47
2019-06-10T05:36:06.593Z,52.55
2019-06-10T05:39:12.314Z,52.05
2019-06-10T05:42:18.015Z,52.20
2019-06-10T05:45:25.839Z,52.31
2019-06-10T05:48:33.053Z,52.31
2019-06-10T05:51:42.313Z,52.27
2019-06-10T05:54:48.314Z,52.33
2019-06-10T05:57:53.980Z,52.70
2019-06-10T06:00:59.670Z,52.85
2019-06-10T06:04:05.438Z,53.41
2019-06-10T06:07:12.893Z,53.54
2019-06-10T06:10:18.774Z,53.34
2019-06-10T06:13:25.367Z,53.87
2019-06-10T06:16:33.110Z,54.07
2019-06-10T06:19:38.950Z,53.39
2019-06-10T06:22:44.559Z,53.36
2019-06-10T06:25:52.964Z,53.20
2019-06-10T06:28:57.754Z,52.98
2019-06-10T06:32:05.516Z,52.12
2019-06-10T06:35:12.788Z,52.21
2019-06-10T06:38:18.448Z,49.40
2019-06-10T06:41:24.217Z,47.54
2019-06-10T06:44:32.464Z,46.56
2019-06-10T06:47:37.756Z,46.65
2019-06-10T06:51:00.252Z,46.85
2019-06-10T06:53:56.241Z,47.32
2019-06-10T06:57:03.238Z,46.76
2019-06-10T07:00:34.243Z,46.24
2019-06-10T07:03:15.601Z,45.51
2019-06-10T07:06:23.046Z,46.24
2019-06-10T07:09:33.079Z,47.16
2019-06-10T07:12:39.487Z,47.20
2019-06-10T07:15:47.639Z,48.05
2019-06-10T07:18:54.136Z,47.78
2019-06-10T07:22:11.419Z,48.36
2019-06-10T07:25:08.022Z,47.96
2019-06-10T07:28:14.752Z,47.13
2019-06-10T07:31:26.783Z,47.05
2019-06-10T07:34:27.873Z,46.89
2019-06-10T07:37:34.984Z,46.94
2019-06-10T07:40:45.277Z,46.90
2019-06-10T07:43:49.775Z,47.00
2019-06-10T07:46:55.666Z,46.61
2019-06-10T07:50:03.010Z,46.54
2019-06-10T07:53:09.926Z,46.57
2019-06-10T07:56:15.559Z,46.51
2019-06-10T07:59:23.308Z,46.47
2019-06-10T08:02:28.600Z,46.33
2019-06-10T08:05:35.631Z,46.06
2019-06-10T08:08:44.833Z,45.99
2019-06-10T08:11:49.198Z,45.69
2019-06-10T08:14:54.876Z,45.24
2019-06-10T08:18:04.123Z,44.53
2019-06-10T08:21:08.024Z,44.11
2019-06-10T08:24:13.672Z,43.76
2019-06-10T08:27:19.446Z,44.06
2019-06-10T08:30:27.558Z,44.41
2019-06-10T08:33:33.222Z,44.83
2019-06-10T08:36:50.423Z,45.03
2019-06-10T08:39:53.869Z,44.76
2019-06-10T08:43:00.620Z,44.69
2019-06-10T08:46:06.612Z,44.26
2019-06-10T08:49:12.722Z,44.63
2019-06-10T08:52:19.560Z,45.17
2019-06-10T08:55:25.364Z,45.20
2019-06-10T08:58:33.057Z,44.39
2019-06-10T09:01:39.478Z,44.12
2019-06-10T09:04:48.746Z,43.94
2019-06-10T09:07:54.487Z,43.18
2019-06-10T09:11:02.392Z,43.61
2019-06-10T09:14:07.892Z,43.32
2019-06-10T09:17:13.570Z,43.32
2019-06-10T09:20:22.792Z,42.74
2019-06-10T09:23:27.394Z,43.12
2019-06-10T09:26:33.891Z,42.86
2019-06-10T09:29:41.720Z,43.15
2019-06-10T09:32:51.488Z,43.46
2019-06-10T09:35:55.290Z,43.65
2019-06-10T09:39:03.759Z,43.88
2019-06-10T09:42:08.851Z,43.26
2019-06-10T09:45:15.480Z,43.44
2019-06-10T09:48:23.118Z,43.10
2019-06-10T09:51:32.236Z,43.11
2019-06-10T09:54:37.437Z,43.84
2019-06-10T09:57:45.985Z,42.99
2019-06-10T10:00:57.561Z,43.47
2019-06-10T10:04:00.775Z,42.28
2019-06-10T10:07:06.529Z,40.36
2019-06-10T10:10:13.449Z,39.25
2019-06-10T10:13:19.080Z,39.53
2019-06-10T10:16:24.770Z,38.57
2019-06-10T10:19:30.548Z,37.34
2019-06-10T10:22:36.243Z,36.70
2019-06-10T10:25:44.895Z,36.80
2019-06-10T10:28:51.835Z,36.60
2019-06-10T10:31:56.794Z,36.53
2019-06-10T10:35:03.942Z,35.91
2019-06-10T10:38:14.343Z,34.92
2019-06-10T10:41:27.561Z,35.27
2019-06-10T10:44:33.274Z,35.08
2019-06-10T10:47:39.034Z,35.11
2019-06-10T10:50:45.640Z,35.55
2019-06-10T10:54:15.582Z,35.08
2019-06-10T10:56:59.426Z,34.06
2019-06-10T11:00:06.798Z,32.89
2019-06-10T11:03:13.433Z,32.60
2019-06-10T11:06:19.454Z,32.63
2019-06-10T11:09:26.455Z,33.67
2019-06-10T11:12:34.098Z,34.16
2019-06-10T11:15:39.987Z,32.03
2019-06-10T11:18:45.687Z,32.43
2019-06-10T11:21:53.635Z,32.44
2019-06-10T11:24:59.607Z,33.05
2019-06-10T11:28:06.470Z,33.33
2019-06-10T11:31:13.782Z,34.04
2019-06-10T11:34:19.988Z,35.18
2019-06-10T11:37:25.701Z,34.21
2019-06-10T11:40:33.932Z,34.17
2019-06-10T11:43:39.455Z,32.55
2019-06-10T11:46:46.644Z,32.78
2019-06-10T11:49:54.975Z,31.99
2019-06-10T11:53:01.375Z,32.42
2019-06-10T11:56:07.516Z,33.60
2019-06-10T11:59:13.548Z,31.85
2019-06-10T12:02:19.511Z,32.05
2019-06-10T12:05:25.803Z,31.94
2019-06-10T12:08:34.235Z,33.04
2019-06-10T12:11:42.897Z,33.77
2019-06-10T12:14:47.323Z,35.03
2019-06-10T12:18:01.804Z,36.64
2019-06-10T12:21:03.577Z,44.97
2019-06-10T12:24:07.859Z,49.02
2019-06-10T12:27:13.584Z,50.73
2019-06-10T12:30:22.236Z,52.36
2019-06-10T12:33:27.446Z,54.34
2019-06-10T12:36:33.126Z,54.19
2019-06-10T12:39:39.075Z,54.00
2019-06-10T12:42:45.929Z,52.24
2019-06-10T12:45:53.014Z,53.50
2019-06-10T12:49:02.084Z,50.30
2019-06-10T12:52:07.580Z,50.04
2019-06-10T12:55:13.975Z,48.33
2019-06-10T12:58:19.653Z,51.38
2019-06-10T13:01:26.695Z,50.63
2019-06-10T13:04:33.765Z,49.20
2019-06-10T13:07:39.716Z,48.91
2019-06-10T13:10:46.745Z,47.33
2019-06-10T13:13:53.041Z,48.28
2019-06-10T13:17:00.004Z,47.68
2019-06-10T13:20:08.237Z,46.25
2019-06-10T13:23:23.303Z,46.83
2019-06-10T13:26:23.444Z,45.96
2019-06-10T13:29:29.252Z,45.43
2019-06-10T13:32:35.088Z,46.07
2019-06-10T13:35:41.754Z,45.24
2019-06-10T13:38:48.275Z,45.28
2019-06-10T13:41:54.229Z,45.64
2019-06-10T13:45:00.007Z,45.75
2019-06-10T13:48:08.402Z,44.48
2019-06-10T13:51:15.750Z,43.25
2019-06-10T13:54:22.573Z,43.50
2019-06-10T13:57:32.226Z,42.79
2019-06-10T14:00:42.694Z,44.07
2019-06-10T14:03:45.417Z,44.01
2019-06-10T14:06:56.860Z,43.37
2019-06-10T14:09:59.062Z,44.14
2019-06-10T14:13:08.772Z,44.85
2019-06-10T14:16:15.182Z,43.42
2019-06-10T14:19:23.062Z,43.87
2019-06-10T14:22:28.301Z,44.19
2019-06-10T14:25:34.012Z,43.78
2019-06-10T14:28:41.789Z,44.41
2019-06-10T14:31:48.035Z,45.18
2019-06-10T14:34:54.554Z,45.42
2019-06-10T14:38:00.210Z,45.93
2019-06-10T14:41:06.574Z,45.43
2019-06-10T14:44:16.064Z,46.05
2019-06-10T14:47:19.842Z,45.27
2019-06-10T14:50:25.637Z,44.32
2019-06-10T14:53:33.736Z,44.29
2019-06-10T14:56:50.772Z,44.29
2019-06-10T14:59:46.067Z,44.59
2019-06-10T15:02:53.781Z,44.33
2019-06-10T15:05:59.188Z,44.28
2019-06-10T15:09:07.432Z,43.87
2019-06-10T15:12:15.556Z,42.84
2019-06-10T15:15:23.377Z,43.14
2019-06-10T15:18:28.334Z,43.75
2019-06-10T15:21:33.973Z,43.57
2019-06-10T15:24:39.663Z,43.57
2019-06-10T15:27:45.386Z,43.36
2019-06-10T15:30:52.454Z,43.11
2019-06-10T15:33:58.476Z,43.71
2019-06-10T15:37:04.256Z,43.69
2019-06-10T15:40:14.023Z,43.60
2019-06-10T15:43:18.130Z,43.87
2019-06-10T15:46:23.938Z,43.70
2019-06-10T15:49:32.600Z,44.16
2019-06-10T15:52:38.822Z,44.08
2019-06-10T15:56:09.116Z,43.91
2019-06-10T15:58:52.214Z,44.31
2019-06-10T16:01:58.531Z,44.79
2019-06-10T16:05:04.450Z,44.76
2019-06-10T16:08:12.532Z,45.18
2019-06-10T16:11:18.898Z,44.74
2019-06-10T16:14:25.443Z,45.00
2019-06-10T16:17:33.214Z,44.50
2019-06-10T16:20:38.674Z,44.56
2019-06-10T16:23:44.347Z,44.07
2019-06-10T16:26:52.436Z,44.18
2019-06-10T16:29:57.397Z,44.37
2019-06-10T16:33:03.033Z,44.65
2019-06-10T16:36:08.755Z,44.99
2019-06-10T16:39:14.923Z,44.82
2019-06-10T16:42:22.977Z,44.74
2019-06-10T16:45:30.928Z,45.39
2019-06-10T16:48:35.440Z,45.81
2019-06-10T16:51:42.917Z,45.76
2019-06-10T16:54:48.462Z,45.81
2019-06-10T16:57:59.206Z,45.41
2019-06-10T17:01:03.485Z,45.98
2019-06-10T17:04:08.941Z,46.45
2019-06-10T17:07:14.602Z,46.87
2019-06-10T17:10:21.764Z,47.46
2019-06-10T17:13:30.317Z,48.18
2019-06-10T17:16:36.097Z,48.76
2019-06-10T17:19:41.791Z,48.92
2019-06-10T17:22:47.502Z,49.07
2019-06-10T17:25:55.802Z,50.12
2019-06-10T17:29:02.816Z,50.48
2019-06-10T17:32:08.612Z,50.89
2019-06-10T17:35:20.080Z,51.34
2019-06-10T17:38:26.891Z,51.67
2019-06-10T17:41:35.260Z,51.59
2019-06-10T17:44:42.724Z,51.39
2019-06-10T17:47:48.640Z,51.57
2019-06-10T17:50:54.462Z,51.35
2019-06-10T17:54:02.475Z,51.13
2019-06-10T17:57:08.247Z,51.79
2019-06-10T18:00:15.103Z,51.76
2019-06-10T18:03:23.161Z,51.93
2019-06-10T18:06:29.586Z,51.95
2019-06-10T18:09:37.061Z,51.64
2019-06-10T18:12:42.992Z,52.12
2019-06-10T18:15:48.697Z,52.68
2019-06-10T18:18:54.420Z,53.32
2019-06-10T18:22:00.220Z,52.87
2019-06-10T18:25:06.172Z,52.94
2019-06-10T18:28:12.200Z,52.61
2019-06-10T18:31:18.757Z,52.64
2019-06-10T18:34:25.686Z,53.43
2019-06-10T18:37:34.462Z,53.96
2019-06-10T18:40:39.871Z,53.80
2019-06-10T18:43:46.295Z,54.02
2019-06-10T18:46:51.975Z,53.83
2019-06-10T18:49:57.654Z,54.70
2019-06-10T18:53:04.335Z,55.24
2019-06-10T18:56:12.668Z,55.20
2019-06-10T18:59:21.257Z,55.58
2019-06-10T19:02:26.434Z,55.11
2019-06-10T19:05:33.528Z,54.48
2019-06-10T19:08:41.379Z,53.84
2019-06-10T19:11:47.744Z,53.45
2019-06-10T19:14:55.354Z,53.19
2019-06-10T19:18:03.175Z,53.17
2019-06-10T19:21:08.926Z,52.97
2019-06-10T19:24:16.866Z,52.28
2019-06-10T19:27:23.704Z,52.12
2019-06-10T19:30:31.864Z,51.95
2019-06-10T19:33:39.269Z,51.64
2019-06-10T19:36:45.846Z,51.72
2019-06-10T19:39:54.090Z,51.71
2019-06-10T19:42:59.098Z,51.65
2019-06-10T19:46:07.240Z,51.42
2019-06-10T19:49:13.452Z,51.58
2019-06-10T19:52:23.329Z,51.87
2019-06-10T19:55:27.982Z,51.96
2019-06-10T19:58:34.203Z,51.81
2019-06-10T20:01:41.892Z,51.79
2019-06-10T20:04:47.273Z,52.18
2019-06-10T20:07:53.455Z,51.85
2019-06-10T20:10:59.713Z,51.92
2019-06-10T20:14:07.365Z,51.95
2019-06-10T20:17:13.536Z,51.87
2019-06-10T20:20:22.312Z,51.84
2019-06-10T20:23:27.297Z,52.11
2019-06-10T20:26:33.164Z,52.47
2019-06-10T20:29:40.487Z,52.87
2019-06-10T20:32:51.852Z,53.07
2019-06-10T20:35:56.191Z,53.63
2019-06-10T20:39:01.874Z,53.25
2019-06-10T20:42:09.086Z,53.40
2019-06-10T20:45:15.009Z,53.43
2019-06-10T20:48:22.474Z,53.90
2019-06-10T20:51:28.078Z,53.75
2019-06-10T20:54:33.746Z,53.61
2019-06-10T20:57:52.114Z,54.89
2019-06-10T21:00:51.865Z,54.97
2019-06-10T21:03:54.443Z,54.75
2019-06-10T21:07:02.490Z,54.00
2019-06-10T21:10:09.881Z,53.97
2019-06-10T21:13:15.724Z,53.84
2019-06-10T21:16:23.008Z,53.74
2019-06-10T21:19:28.726Z,54.01
2019-06-10T21:22:34.447Z,54.41
2019-06-10T21:25:41.205Z,54.25
2019-06-10T21:28:49.229Z,53.92
2019-06-10T21:31:55.211Z,54.15
2019-06-10T21:35:03.105Z,53.81
2019-06-10T21:38:08.437Z,53.97
2019-06-10T21:41:14.102Z,54.25
2019-06-10T21:44:19.794Z,54.56
2019-06-10T21:47:25.491Z,54.72
2019-06-10T21:50:33.433Z,54.42
2019-06-10T21:53:38.642Z,55.06
2019-06-10T21:56:45.643Z,55.26
2019-06-10T21:59:54.984Z,55.16
2019-06-10T22:02:59.103Z,55.39
2019-06-10T22:06:04.870Z,56.76
2019-06-10T22:09:12.460Z,56.05
2019-06-10T22:12:18.520Z,56.03
2019-06-10T22:15:24.328Z,56.02
2019-06-10T22:18:32.208Z,55.96
2019-06-10T22:21:38.118Z,56.39
2019-06-10T22:24:44.694Z,55.98
2019-06-10T22:27:50.353Z,56.96
2019-06-10T22:31:15.131Z,55.77
2019-06-10T22:34:04.532Z,55.87
2019-06-10T22:37:12.373Z,56.30
2019-06-10T22:40:17.973Z,55.52
2019-06-10T22:43:23.765Z,56.64
2019-06-10T22:46:29.431Z,56.35
2019-06-10T22:49:35.122Z,56.44
2019-06-10T22:52:42.582Z,55.98
2019-06-10T22:55:50.902Z,56.09
2019-06-10T22:58:57.465Z,56.13
2019-06-10T23:02:03.210Z,56.31
2019-06-10T23:05:09.363Z,56.22
2019-06-10T23:08:15.043Z,56.68
2019-06-10T23:11:20.729Z,56.54
2019-06-10T23:14:26.388Z,57.33
2019-06-10T23:17:32.099Z,57.31
2019-06-10T23:20:37.801Z,57.08
2019-06-10T23:23:43.487Z,57.64
2019-06-10T23:26:49.725Z,57.98
2019-06-10T23:29:56.008Z,57.63
2019-06-10T23:33:02.978Z,57.95
2019-06-10T23:36:08.666Z,57.10
2019-06-10T23:39:14.356Z,57.09
2019-06-10T23:42:20.016Z,57.49
2019-06-10T23:45:25.726Z,56.84
2019-06-10T23:48:33.004Z,57.63
2019-06-10T23:51:38.763Z,58.08
2019-06-10T23:54:44.457Z,57.23
2019-06-10T23:57:50.111Z,57.55
